Time;durP1;ratioP1;P1;durP2;ratioP2;P2;SDS_P1;SDS_P2;PMS_P1;PMS_P2;Temp;Humidity;BMP_temperature;BMP_pressure;BME280_temperature;BME280_humidity;BME280_pressure;Samples;Min_cycle;Max_cycle;Signal;HPM_P1;HPM_P2
2021/06/15 00:00:05;;;;;;;22.55;11.43;;;16.30;99.90;;;;;;2092579;28;20048;-65
2021/06/15 00:01:05;;;;;;;27.58;12.88;;;16.30;99.90;;;;;;2086905;28;20028;-65
2021/06/15 00:02:06;;;;;;;23.23;11.82;;;16.40;99.90;;;;;;2092182;28;20036;-64
2021/06/15 00:03:07;;;;;;;25.10;11.82;;;16.40;99.90;;;;;;2087606;28;20033;-65
2021/06/15 00:04:07;;;;;;;26.13;11.70;;;16.40;99.90;;;;;;2095186;28;20017;-64
2021/06/15 00:05:09;;;;;;;28.05;11.50;;;16.50;99.90;;;;;;2094928;28;20099;-64
2021/06/15 00:06:10;;;;;;;19.48;10.55;;;16.50;99.90;;;;;;2094897;28;20088;-67
2021/06/15 00:07:11;;;;;;;23.23;11.88;;;16.50;99.90;;;;;;2094937;28;20086;-65
2021/06/15 00:08:12;;;;;;;26.42;12.13;;;16.60;99.90;;;;;;2095232;28;20032;-64
2021/06/15 00:09:12;;;;;;;22.38;11.45;;;16.60;99.90;;;;;;2095060;28;20103;-64
2021/06/15 00:10:21;;;;;;;22.92;10.73;;;16.60;99.90;;;;;;2089801;28;20013;-64
2021/06/15 00:11:21;;;;;;;21.90;11.43;;;16.60;99.90;;;;;;2087104;28;20021;-65
2021/06/15 00:12:22;;;;;;;28.17;11.07;;;16.60;99.90;;;;;;2093673;28;20040;-64
2021/06/15 00:13:23;;;;;;;23.48;11.25;;;16.60;99.90;;;;;;2089440;28;20065;-64
2021/06/15 00:14:24;;;;;;;24.98;11.80;;;16.70;99.90;;;;;;2086908;28;20009;-64
2021/06/15 00:15:25;;;;;;;27.30;12.25;;;16.70;99.90;;;;;;2091333;28;20021;-64
2021/06/15 00:16:26;;;;;;;24.10;11.32;;;16.70;99.90;;;;;;2093721;28;20028;-64
2021/06/15 00:17:27;;;;;;;26.17;10.68;;;16.70;99.90;;;;;;2089146;28;20697;-64
2021/06/15 00:18:27;;;;;;;26.23;10.68;;;16.70;99.90;;;;;;2088445;28;20017;-65
2021/06/15 00:19:28;;;;;;;26.13;11.23;;;16.70;99.90;;;;;;2086205;28;20048;-66
2021/06/15 00:20:30;;;;;;;26.48;10.82;;;16.70;99.90;;;;;;2084873;28;20625;-64
2021/06/15 00:21:30;;;;;;;23.95;11.20;;;16.70;99.90;;;;;;2081874;28;20496;-64
2021/06/15 00:22:31;;;;;;;26.27;11.48;;;16.70;99.90;;;;;;2095778;28;20024;-64
2021/06/15 00:23:32;;;;;;;26.73;11.45;;;16.70;99.90;;;;;;2092790;28;20566;-64
2021/06/15 00:24:33;;;;;;;19.60;10.32;;;16.70;99.90;;;;;;2082131;28;20473;-69
2021/06/15 00:25:33;;;;;;;25.23;11.15;;;16.70;99.90;;;;;;2083113;28;20040;-64
2021/06/15 00:26:34;;;;;;;22.75;12.35;;;16.70;99.90;;;;;;2089185;28;20044;-64
2021/06/15 00:27:35;;;;;;;26.63;11.75;;;16.70;99.90;;;;;;2089759;28;20024;-64
2021/06/15 00:28:36;;;;;;;20.20;11.23;;;16.70;99.90;;;;;;2090069;28;20017;-65
2021/06/15 00:29:37;;;;;;;18.55;10.93;;;16.70;99.90;;;;;;2088529;28;20108;-64
2021/06/15 00:30:38;;;;;;;26.02;11.10;;;16.70;99.90;;;;;;2084707;28;20029;-66
2021/06/15 00:31:39;;;;;;;27.13;11.38;;;16.70;99.90;;;;;;2087422;28;20025;-64
2021/06/15 00:32:40;;;;;;;24.40;11.65;;;16.70;99.90;;;;;;2083421;28;20029;-64
2021/06/15 00:33:41;;;;;;;24.23;12.20;;;16.70;99.90;;;;;;2089942;28;20112;-65
2021/06/15 00:34:42;;;;;;;19.48;10.70;;;16.70;99.90;;;;;;2089610;28;20052;-64
2021/06/15 00:35:42;;;;;;;25.38;10.80;;;16.70;99.90;;;;;;2089280;28;20029;-65
2021/06/15 00:36:43;;;;;;;24.30;12.07;;;16.70;99.90;;;;;;2088734;28;20459;-64
2021/06/15 00:37:44;;;;;;;20.08;11.77;;;16.70;99.90;;;;;;2090158;28;20047;-65
2021/06/15 00:38:45;;;;;;;24.13;11.95;;;16.70;99.90;;;;;;2089999;28;20029;-64
2021/06/15 00:39:47;;;;;;;27.55;12.23;;;16.60;99.90;;;;;;2088569;28;20365;-64
2021/06/15 00:40:48;;;;;;;26.48;11.98;;;16.60;99.90;;;;;;2081408;28;20017;-64
2021/06/15 00:41:48;;;;;;;24.50;13.68;;;16.60;99.90;;;;;;2095884;28;20573;-64
2021/06/15 00:42:50;;;;;;;26.27;12.65;;;16.60;99.90;;;;;;2090786;28;20027;-64
2021/06/15 00:43:51;;;;;;;23.00;12.27;;;16.60;99.90;;;;;;2089972;28;20032;-66
2021/06/15 00:44:51;;;;;;;31.17;12.80;;;16.60;99.90;;;;;;2084923;28;20053;-65
2021/06/15 00:45:52;;;;;;;23.80;13.20;;;16.60;99.90;;;;;;2080376;28;20120;-64
2021/06/15 00:46:53;;;;;;;25.52;12.10;;;16.60;99.90;;;;;;2094224;28;20027;-65
2021/06/15 00:47:55;;;;;;;24.73;11.82;;;16.60;99.90;;;;;;2091768;28;20028;-64
2021/06/15 00:48:56;;;;;;;25.25;12.90;;;16.60;99.90;;;;;;2087491;28;20017;-65
2021/06/15 00:49:57;;;;;;;26.15;12.13;;;16.70;99.90;;;;;;2090208;28;20070;-64
2021/06/15 00:50:58;;;;;;;20.38;11.95;;;16.60;99.90;;;;;;2088833;28;20567;-64
2021/06/15 00:51:59;;;;;;;27.52;12.00;;;16.60;99.90;;;;;;2087067;28;20032;-64
2021/06/15 00:53:00;;;;;;;22.80;12.40;;;16.60;99.90;;;;;;2082005;28;20052;-64
2021/06/15 00:54:01;;;;;;;27.67;12.13;;;16.60;99.90;;;;;;2089119;28;20025;-64
2021/06/15 00:55:02;;;;;;;31.55;12.90;;;16.60;99.90;;;;;;2087159;28;20104;-64
2021/06/15 00:56:04;;;;;;;28.60;12.98;;;16.60;99.90;;;;;;2080753;28;20056;-64
2021/06/15 00:57:05;;;;;;;24.13;12.38;;;16.60;99.90;;;;;;2083832;28;20029;-64
2021/06/15 00:58:06;;;;;;;28.80;12.15;;;16.60;99.90;;;;;;2082586;28;20078;-64
2021/06/15 00:59:07;;;;;;;28.00;12.80;;;16.60;99.90;;;;;;2089375;28;20094;-64
2021/06/15 01:00:09;;;;;;;23.63;11.88;;;16.60;99.90;;;;;;2089062;28;20025;-64
2021/06/15 01:01:09;;;;;;;30.20;12.38;;;16.60;99.90;;;;;;2084612;28;20118;-64
2021/06/15 01:02:11;;;;;;;24.13;12.40;;;16.60;99.90;;;;;;2092241;28;20047;-64
2021/06/15 01:03:12;;;;;;;27.42;12.65;;;16.60;99.90;;;;;;2089594;28;20542;-64
2021/06/15 01:04:15;;;;;;;26.95;12.65;;;16.60;99.90;;;;;;2091993;28;20075;-65
2021/06/15 01:05:17;;;;;;;20.80;11.90;;;16.60;99.90;;;;;;2091512;28;20016;-64
2021/06/15 01:06:44;;;;;;;24.13;12.73;;;16.60;99.90;;;;;;2089631;28;20017;-64
2021/06/15 01:08:09;;;;;;;28.58;12.77;;;16.60;99.90;;;;;;2088654;28;20408;-63
2021/06/15 01:09:41;;;;;;;22.60;12.35;;;16.60;99.90;;;;;;2077203;28;20464;-63
2021/06/15 01:11:12;;;;;;;23.80;12.00;;;16.60;99.90;;;;;;2077863;28;20115;-64
2021/06/15 01:12:23;;;;;;;25.20;11.68;;;16.70;99.90;;;;;;2084809;28;20025;-64
2021/06/15 01:13:50;;;;;;;27.67;12.80;;;16.70;99.90;;;;;;2079530;28;20028;-63
2021/06/15 01:15:12;;;;;;;23.20;11.77;;;16.70;99.90;;;;;;2076886;28;20026;-64
2021/06/15 01:16:28;;;;;;;20.50;12.20;;;16.70;99.90;;;;;;2079711;28;20022;-64
2021/06/15 01:17:37;;;;;;;23.83;12.85;;;16.70;99.90;;;;;;2083376;28;20049;-64
2021/06/15 01:18:44;;;;;;;20.42;11.55;;;16.60;99.90;;;;;;2081677;28;20092;-64
2021/06/15 01:20:06;;;;;;;24.23;11.65;;;16.60;99.90;;;;;;2081266;28;20099;-64
2021/06/15 01:21:12;;;;;;;22.88;11.43;;;16.60;99.90;;;;;;2080168;28;20091;-64
2021/06/15 01:22:41;;;;;;;28.77;12.45;;;16.70;99.90;;;;;;2076063;28;20107;-64
2021/06/15 01:23:57;;;;;;;27.20;12.48;;;16.70;99.90;;;;;;2077668;28;20433;-64
2021/06/15 01:25:15;;;;;;;31.52;13.00;;;16.70;99.90;;;;;;2073522;28;20540;-64
2021/06/15 01:26:16;;;;;;;29.23;12.05;;;16.70;99.90;;;;;;2080744;28;20020;-64
2021/06/15 01:27:38;;;;;;;28.95;12.80;;;16.70;99.90;;;;;;2081130;28;20509;-64
2021/06/15 01:28:50;;;;;;;28.13;12.75;;;16.60;99.90;;;;;;2078099;28;20017;-63
2021/06/15 01:29:53;;;;;;;27.85;12.43;;;16.70;99.90;;;;;;2074842;28;20075;-64
2021/06/15 01:31:23;;;;;;;26.85;12.82;;;16.70;99.90;;;;;;2073997;28;20018;-64
2021/06/15 01:32:30;;;;;;;26.05;13.43;;;16.60;99.90;;;;;;2082317;28;20044;-64
2021/06/15 01:33:37;;;;;;;22.55;12.75;;;16.60;99.90;;;;;;2081304;28;20226;-64
2021/06/15 01:34:42;;;;;;;21.80;12.43;;;16.60;99.90;;;;;;2088469;28;20454;-64
2021/06/15 01:35:43;;;;;;;23.90;12.52;;;16.60;99.90;;;;;;2088157;28;20511;-64
2021/06/15 01:37:23;;;;;;;24.98;12.48;;;16.70;99.90;;;;;;2079954;28;20037;-64
2021/06/15 01:38:31;;;;;;;29.98;12.45;;;16.60;99.90;;;;;;2082068;28;20028;-65
2021/06/15 01:39:38;;;;;;;20.38;12.73;;;16.70;99.90;;;;;;2088153;28;20056;-65
2021/06/15 01:40:51;;;;;;;25.27;12.50;;;16.70;99.90;;;;;;2085938;28;20029;-64
2021/06/15 01:42:07;;;;;;;18.23;12.25;;;16.70;99.90;;;;;;2080568;28;20076;-65
2021/06/15 01:43:31;;;;;;;24.38;12.43;;;16.70;99.90;;;;;;2081164;28;20524;-64
2021/06/15 01:44:35;;;;;;;27.02;12.35;;;16.70;99.90;;;;;;2079466;28;20483;-64
2021/06/15 01:45:43;;;;;;;25.10;13.05;;;16.70;99.90;;;;;;2080055;28;20022;-64
2021/06/15 01:46:56;;;;;;;22.15;12.75;;;16.60;99.90;;;;;;2084303;28;20028;-64
2021/06/15 01:48:06;;;;;;;25.83;12.70;;;16.70;99.90;;;;;;2087275;28;20722;-64
2021/06/15 01:49:13;;;;;;;30.15;13.15;;;16.70;99.90;;;;;;2083352;28;20375;-64
2021/06/15 01:50:17;;;;;;;29.75;13.73;;;16.70;99.90;;;;;;2080273;28;20729;-64
2021/06/15 01:51:24;;;;;;;26.48;13.23;;;16.70;99.90;;;;;;2080956;28;20072;-64
2021/06/15 01:52:31;;;;;;;26.27;13.10;;;16.70;99.90;;;;;;2080673;28;20045;-65
2021/06/15 01:53:34;;;;;;;24.13;13.25;;;16.70;99.90;;;;;;2084279;28;20286;-64
2021/06/15 01:54:37;;;;;;;25.92;12.80;;;16.70;99.90;;;;;;2080782;28;20508;-64
2021/06/15 01:55:45;;;;;;;26.73;14.13;;;16.70;99.90;;;;;;2096689;28;20020;-64
2021/06/15 01:56:46;;;;;;;21.30;12.90;;;16.70;99.90;;;;;;2084785;28;20579;-65
2021/06/15 01:57:48;;;;;;;29.17;13.23;;;16.70;99.90;;;;;;2081060;28;20030;-64
2021/06/15 01:58:49;;;;;;;29.58;13.35;;;16.70;99.90;;;;;;2080682;28;20121;-65
2021/06/15 01:59:55;;;;;;;26.10;13.02;;;16.70;99.90;;;;;;2080943;28;20143;-65
2021/06/15 02:00:56;;;;;;;27.17;13.52;;;16.70;99.90;;;;;;2081171;28;20453;-64
2021/06/15 02:01:59;;;;;;;30.05;12.63;;;16.70;99.90;;;;;;2074042;28;20041;-64
2021/06/15 02:03:02;;;;;;;19.63;12.23;;;16.70;99.90;;;;;;2072696;28;20386;-64
2021/06/15 02:04:04;;;;;;;20.23;11.65;;;16.70;99.90;;;;;;2078687;28;20037;-64
2021/06/15 02:05:09;;;;;;;31.23;13.20;;;16.70;99.90;;;;;;2080817;28;20075;-64
2021/06/15 02:06:11;;;;;;;32.00;13.70;;;16.60;99.90;;;;;;2080573;28;20037;-64
2021/06/15 02:07:19;;;;;;;26.15;13.50;;;16.60;99.90;;;;;;2080516;28;20024;-64
2021/06/15 02:08:30;;;;;;;19.65;11.88;;;16.60;99.90;;;;;;2077004;28;20022;-64
2021/06/15 02:09:34;;;;;;;22.73;11.77;;;16.60;99.90;;;;;;2072387;28;20141;-64
2021/06/15 02:10:35;;;;;;;29.75;12.10;;;16.60;99.90;;;;;;2077687;28;20030;-64
2021/06/15 02:11:36;;;;;;;23.52;12.77;;;16.60;99.90;;;;;;2079791;28;20022;-64
2021/06/15 02:12:41;;;;;;;23.60;11.77;;;16.60;99.90;;;;;;2076176;28;20037;-64
2021/06/15 02:13:45;;;;;;;26.05;13.30;;;16.60;99.90;;;;;;2075658;28;20028;-64
2021/06/15 02:14:46;;;;;;;23.92;13.05;;;16.70;99.90;;;;;;2076083;28;20079;-64
2021/06/15 02:15:48;;;;;;;24.48;12.35;;;16.60;99.90;;;;;;2078834;28;20021;-64
2021/06/15 02:16:52;;;;;;;25.17;12.20;;;16.60;99.90;;;;;;2080372;28;20142;-64
2021/06/15 02:17:56;;;;;;;24.83;12.48;;;16.70;99.90;;;;;;2080748;28;20473;-64
2021/06/15 02:18:57;;;;;;;26.10;12.85;;;16.60;99.90;;;;;;2080352;28;20017;-64
2021/06/15 02:19:58;;;;;;;27.90;13.13;;;16.70;99.90;;;;;;2075311;28;20508;-64
2021/06/15 02:21:02;;;;;;;24.50;12.25;;;16.70;99.90;;;;;;2075348;28;20030;-64
2021/06/15 02:22:23;;;;;;;27.58;14.00;;;16.70;99.90;;;;;;2082357;28;20057;-64
2021/06/15 02:23:26;;;;;;;20.70;12.30;;;16.60;99.90;;;;;;2080017;28;20024;-64
2021/06/15 02:24:42;;;;;;;28.17;12.95;;;16.60;99.90;;;;;;2078524;28;20792;-64
2021/06/15 02:25:43;;;;;;;21.45;12.70;;;16.60;99.90;;;;;;2075076;28;20037;-64
2021/06/15 02:26:45;;;;;;;23.47;12.33;;;16.60;99.90;;;;;;2075581;28;20517;-64
2021/06/15 02:27:46;;;;;;;22.85;13.55;;;16.60;99.90;;;;;;2080095;28;20951;-63
2021/06/15 02:28:47;;;;;;;23.55;12.80;;;16.70;99.90;;;;;;2086543;28;20118;-64
2021/06/15 02:29:48;;;;;;;19.60;11.68;;;16.60;99.90;;;;;;2082919;28;20030;-64
2021/06/15 02:30:49;;;;;;;26.77;12.55;;;16.60;99.90;;;;;;2088736;28;20116;-64
2021/06/15 02:31:57;;;;;;;31.77;13.43;;;16.60;99.90;;;;;;2094883;28;20024;-64
2021/06/15 02:33:03;;;;;;;27.88;12.73;;;16.60;99.90;;;;;;2094485;28;20114;-64
2021/06/15 02:34:08;;;;;;;26.65;12.55;;;16.60;99.90;;;;;;2082863;28;20021;-64
2021/06/15 02:35:10;;;;;;;22.75;11.90;;;16.60;99.90;;;;;;2087198;28;20031;-64
2021/06/15 02:36:14;;;;;;;22.70;12.43;;;16.60;99.90;;;;;;2077871;28;20409;-64
2021/06/15 02:37:21;;;;;;;20.10;12.50;;;16.60;99.90;;;;;;2074679;28;20105;-64
2021/06/15 02:38:33;;;;;;;26.13;11.35;;;16.60;99.90;;;;;;2078774;28;20570;-64
2021/06/15 02:39:35;;;;;;;23.02;11.98;;;16.70;99.90;;;;;;2076387;28;20472;-64
2021/06/15 02:40:36;;;;;;;;;;;16.60;99.90;;;;;;2088749;28;20021;-65
2021/06/15 02:41:39;;;;;;;33.17;11.98;;;16.70;99.90;;;;;;2089309;28;19905;-64
2021/06/15 02:42:42;;;;;;;24.77;11.32;;;16.60;99.90;;;;;;2089101;28;20025;-63
2021/06/15 02:43:45;;;;;;;27.70;10.98;;;16.70;99.90;;;;;;2079391;28;20021;-64
2021/06/15 02:44:48;;;;;;;19.50;11.55;;;16.60;99.90;;;;;;2078013;28;20475;-64
2021/06/15 02:45:50;;;;;;;21.67;11.38;;;16.70;99.90;;;;;;2079010;28;20028;-64
2021/06/15 02:46:54;;;;;;;24.70;11.88;;;16.70;99.90;;;;;;2078206;28;20017;-64
2021/06/15 02:47:59;;;;;;;26.80;12.27;;;16.60;99.90;;;;;;2080357;28;20072;-63
2021/06/15 02:49:07;;;;;;;24.92;11.45;;;16.70;99.90;;;;;;2075551;28;20099;-64
2021/06/15 02:50:11;;;;;;;24.55;11.23;;;16.60;99.90;;;;;;2079936;28;20033;-63
2021/06/15 02:51:11;;;;;;;30.33;12.10;;;16.60;99.90;;;;;;2080699;28;20017;-64
2021/06/15 02:52:38;;;;;;;32.80;12.15;;;16.60;99.90;;;;;;2087897;28;20021;-64
2021/06/15 02:54:05;;;;;;;18.80;11.18;;;16.60;99.90;;;;;;2082989;28;20036;-63
2021/06/15 02:55:13;;;;;;;23.05;11.13;;;16.70;99.90;;;;;;2077621;28;20637;-64
2021/06/15 02:56:21;;;;;;;18.80;11.48;;;16.70;99.90;;;;;;2074700;28;20029;-65
2021/06/15 02:57:24;;;;;;;26.33;11.90;;;16.70;99.90;;;;;;2079406;28;20033;-65
2021/06/15 02:58:28;;;;;;;23.75;11.90;;;16.70;99.90;;;;;;2075313;28;20489;-64
2021/06/15 02:59:29;;;;;;;25.35;11.65;;;16.70;99.90;;;;;;2072417;28;20061;-64
2021/06/15 03:00:30;;;;;;;22.38;11.70;;;16.70;99.90;;;;;;2078792;28;20535;-64
2021/06/15 03:01:30;;;;;;;26.05;12.52;;;16.70;99.90;;;;;;2074568;28;20075;-64
2021/06/15 03:02:31;;;;;;;22.70;12.00;;;16.70;99.90;;;;;;2079468;28;20923;-63
2021/06/15 03:03:32;;;;;;;24.48;12.30;;;16.70;99.90;;;;;;2082025;28;20025;-63
2021/06/15 03:04:33;;;;;;;28.75;12.52;;;16.60;99.90;;;;;;2072297;28;20026;-64
2021/06/15 03:05:34;;;;;;;29.83;11.75;;;16.60;99.90;;;;;;2076271;28;20087;-64
2021/06/15 03:06:34;;;;;;;23.92;12.02;;;16.70;99.90;;;;;;2071567;28;20022;-64
2021/06/15 03:07:35;;;;;;;25.10;11.57;;;16.70;99.90;;;;;;2079539;28;20095;-64
2021/06/15 03:08:39;;;;;;;29.73;12.85;;;16.70;99.90;;;;;;2080613;28;20013;-64
2021/06/15 03:09:40;;;;;;;24.85;11.75;;;16.70;99.90;;;;;;2071519;28;20029;-64
2021/06/15 03:10:41;;;;;;;25.88;11.50;;;16.70;99.90;;;;;;2083064;28;20135;-64
2021/06/15 03:11:48;;;;;;;22.80;11.45;;;16.70;99.90;;;;;;2072732;28;20117;-64
2021/06/15 03:13:05;;;;;;;28.83;12.52;;;16.70;99.90;;;;;;2080374;28;20045;-64
2021/06/15 03:14:14;;;;;;;26.13;12.43;;;16.70;99.90;;;;;;2079301;28;20429;-64
2021/06/15 03:15:20;;;;;;;22.05;12.50;;;16.70;99.90;;;;;;2080213;28;20022;-64
2021/06/15 03:16:24;;;;;;;25.17;12.70;;;16.70;99.90;;;;;;2088271;28;20021;-64
2021/06/15 03:17:27;;;;;;;23.67;11.23;;;16.70;99.90;;;;;;2082150;28;20108;-64
2021/06/15 03:18:36;;;;;;;20.45;11.18;;;16.70;99.90;;;;;;2080325;28;20033;-64
2021/06/15 03:19:46;;;;;;;23.88;12.10;;;16.60;99.90;;;;;;2074074;28;20072;-64
2021/06/15 03:20:49;;;;;;;24.10;11.70;;;16.60;99.90;;;;;;2078374;28;20087;-64
2021/06/15 03:22:05;;;;;;;28.33;12.13;;;16.60;99.90;;;;;;2073048;28;20084;-64
2021/06/15 03:23:13;;;;;;;17.95;11.77;;;16.60;99.90;;;;;;2080516;28;20033;-64
2021/06/15 03:24:21;;;;;;;25.55;11.73;;;16.60;99.90;;;;;;2082324;28;20014;-64
2021/06/15 03:25:30;;;;;;;29.90;12.73;;;16.60;99.90;;;;;;2080446;28;20104;-64
2021/06/15 03:26:49;;;;;;;27.83;13.55;;;16.60;99.90;;;;;;2080878;28;20021;-64
2021/06/15 03:27:59;;;;;;;20.40;11.98;;;16.60;99.90;;;;;;2075905;28;20131;-65
2021/06/15 03:29:01;;;;;;;25.48;12.40;;;16.60;99.90;;;;;;2080172;28;20040;-67
2021/06/15 03:30:09;;;;;;;25.35;12.60;;;16.60;99.90;;;;;;2083121;28;20088;-65
2021/06/15 03:31:14;;;;;;;33.50;12.77;;;16.60;99.90;;;;;;2077086;28;20017;-65
2021/06/15 03:32:16;;;;;;;23.70;12.02;;;16.60;99.90;;;;;;2082034;28;20512;-66
2021/06/15 03:33:19;;;;;;;25.73;12.02;;;16.60;99.90;;;;;;2081395;28;20022;-64
2021/06/15 03:34:22;;;;;;;25.85;12.18;;;16.60;99.90;;;;;;2074422;28;20022;-65
2021/06/15 03:35:26;;;;;;;26.92;12.20;;;16.60;99.90;;;;;;2088792;28;20024;-64
2021/06/15 03:36:27;;;;;;;20.90;11.45;;;16.60;99.90;;;;;;2082824;28;20025;-65
2021/06/15 03:37:30;;;;;;;22.77;12.27;;;16.60;99.90;;;;;;2079306;28;20083;-64
2021/06/15 03:38:33;;;;;;;23.45;11.70;;;16.60;99.90;;;;;;2082465;28;20256;-65
2021/06/15 03:39:35;;;;;;;26.27;11.82;;;16.70;99.90;;;;;;2081281;28;20066;-64
2021/06/15 03:40:43;;;;;;;20.42;11.77;;;16.70;99.90;;;;;;2075404;28;20419;-65
2021/06/15 03:41:44;;;;;;;29.92;12.18;;;16.70;99.90;;;;;;2089855;28;20037;-66
2021/06/15 03:42:45;;;;;;;30.73;12.27;;;16.70;99.90;;;;;;2090662;28;20021;-65
2021/06/15 03:43:49;;;;;;;24.30;12.50;;;16.70;99.90;;;;;;2079386;28;20034;-65
2021/06/15 03:44:58;;;;;;;22.17;11.85;;;16.70;99.90;;;;;;2075487;28;20014;-65
2021/06/15 03:46:12;;;;;;;24.30;11.23;;;16.70;99.90;;;;;;2082266;28;20025;-65
2021/06/15 03:47:14;;;;;;;25.85;11.20;;;16.80;99.90;;;;;;2090228;28;20076;-65
2021/06/15 03:48:16;;;;;;;24.20;11.70;;;16.80;99.90;;;;;;2084134;28;20070;-67
2021/06/15 03:49:20;;;;;;;26.67;12.27;;;16.80;99.90;;;;;;2091399;28;20053;-64
2021/06/15 03:50:22;;;;;;;26.75;11.77;;;16.80;99.90;;;;;;2088568;28;20029;-65
2021/06/15 03:51:26;;;;;;;26.13;12.40;;;16.80;99.90;;;;;;2081159;28;20457;-64
2021/06/15 03:52:38;;;;;;;29.40;11.88;;;16.80;99.90;;;;;;2079914;28;20495;-65
2021/06/15 03:53:40;;;;;;;24.20;11.15;;;16.80;99.90;;;;;;2077080;28;20022;-64
2021/06/15 03:54:43;;;;;;;28.48;11.27;;;16.80;99.90;;;;;;2073858;28;20041;-64
2021/06/15 03:55:47;;;;;;;23.30;10.77;;;16.80;99.90;;;;;;2081316;28;20021;-64
2021/06/15 03:56:50;;;;;;;23.70;11.35;;;16.80;99.90;;;;;;2075326;28;20514;-65
2021/06/15 03:57:52;;;;;;;24.42;10.43;;;16.80;99.90;;;;;;2073621;28;20022;-64
2021/06/15 03:58:56;;;;;;;22.83;11.35;;;16.80;99.90;;;;;;2088151;28;20021;-64
2021/06/15 03:59:59;;;;;;;24.48;11.63;;;16.80;99.90;;;;;;2080366;28;20128;-65
2021/06/15 04:01:00;;;;;;;29.13;11.35;;;16.80;99.90;;;;;;2072990;28;20377;-65
2021/06/15 04:02:06;;;;;;;24.23;11.60;;;16.80;99.90;;;;;;2074117;28;20049;-64
2021/06/15 04:03:10;;;;;;;26.67;10.65;;;16.80;99.90;;;;;;2081309;28;20699;-64
2021/06/15 04:04:13;;;;;;;24.33;10.52;;;16.80;99.90;;;;;;2088946;28;20062;-64
2021/06/15 04:05:16;;;;;;;23.17;11.70;;;16.80;99.90;;;;;;2088746;28;20055;-64
2021/06/15 04:06:17;;;;;;;33.83;11.15;;;16.80;99.90;;;;;;2089192;28;20048;-65
2021/06/15 04:07:21;;;;;;;29.50;11.38;;;16.80;99.90;;;;;;2072951;28;20014;-65
2021/06/15 04:08:24;;;;;;;20.73;10.20;;;16.80;99.90;;;;;;2080281;28;20524;-64
2021/06/15 04:09:27;;;;;;;26.17;11.07;;;16.80;99.90;;;;;;2073841;28;20477;-64
2021/06/15 04:10:29;;;;;;;26.80;11.52;;;16.90;99.90;;;;;;2078351;28;20025;-65
2021/06/15 04:11:34;;;;;;;28.02;11.60;;;16.90;99.90;;;;;;2081776;28;20028;-65
2021/06/15 04:12:35;;;;;;;23.25;11.48;;;16.90;99.90;;;;;;2081755;28;20021;-64
2021/06/15 04:13:40;;;;;;;22.45;11.73;;;16.90;99.90;;;;;;2081649;28;20508;-65
2021/06/15 04:14:46;;;;;;;20.90;11.77;;;16.90;99.90;;;;;;2080290;28;20090;-64
2021/06/15 04:15:48;;;;;;;28.10;11.93;;;16.80;99.90;;;;;;2077437;28;20022;-65
2021/06/15 04:16:50;;;;;;;28.27;11.70;;;16.80;99.90;;;;;;2075496;28;20439;-65
2021/06/15 04:17:55;;;;;;;31.77;11.75;;;16.80;99.90;;;;;;2081817;28;20030;-65
2021/06/15 04:18:59;;;;;;;33.55;12.23;;;16.80;99.90;;;;;;2088136;28;20056;-65
2021/06/15 04:20:01;;;;;;;24.15;11.27;;;16.80;99.90;;;;;;2082161;28;20079;-65
2021/06/15 04:21:03;;;;;;;;;;;16.80;99.90;;;;;;2075633;28;20121;-64
2021/06/15 04:22:07;;;;;;;25.10;12.00;;;16.80;99.90;;;;;;2075749;28;19909;-65
2021/06/15 04:23:10;;;;;;;31.52;12.40;;;16.80;99.90;;;;;;2081790;28;20053;-65
2021/06/15 04:24:14;;;;;;;30.15;11.85;;;16.80;99.90;;;;;;2089087;28;20601;-64
2021/06/15 04:25:28;;;;;;;26.13;11.80;;;16.80;99.90;;;;;;2088592;28;20071;-65
2021/06/15 04:26:33;;;;;;;23.58;11.45;;;16.80;99.90;;;;;;2081358;28;20064;-65
2021/06/15 04:27:35;;;;;;;24.77;12.20;;;16.80;99.90;;;;;;2081233;28;20374;-64
2021/06/15 04:28:38;;;;;;;23.85;11.35;;;16.80;99.90;;;;;;2079956;28;20029;-65
2021/06/15 04:29:38;;;;;;;35.35;12.25;;;16.80;99.90;;;;;;2081007;28;20025;-64
2021/06/15 04:30:40;;;;;;;25.08;12.20;;;16.80;99.90;;;;;;2076524;28;20038;-64
2021/06/15 04:31:43;;;;;;;27.13;11.75;;;16.80;99.90;;;;;;2081129;28;20022;-65
2021/06/15 04:32:53;;;;;;;36.28;12.93;;;16.80;99.90;;;;;;2081151;28;20029;-64
2021/06/15 04:33:55;;;;;;;29.40;12.30;;;16.80;99.90;;;;;;2081448;28;20446;-64
2021/06/15 04:35:00;;;;;;;22.10;12.20;;;16.80;99.90;;;;;;2086857;28;20037;-64
2021/06/15 04:36:04;;;;;;;22.45;11.18;;;16.80;99.90;;;;;;2080193;28;20036;-65
2021/06/15 04:37:08;;;;;;;27.65;11.75;;;16.80;99.90;;;;;;2076890;28;20105;-65
2021/06/15 04:38:24;;;;;;;29.15;10.95;;;16.80;99.90;;;;;;2077638;28;20014;-65
2021/06/15 04:39:30;;;;;;;26.67;11.27;;;16.80;99.90;;;;;;2079124;28;20497;-64
2021/06/15 04:40:44;;;;;;;30.15;11.60;;;16.80;99.90;;;;;;2073295;28;20509;-64
2021/06/15 04:42:12;;;;;;;25.63;12.10;;;16.80;99.90;;;;;;2073102;28;20117;-65
2021/06/15 04:43:27;;;;;;;23.23;11.13;;;16.80;99.90;;;;;;2077124;28;20497;-65
2021/06/15 04:44:32;;;;;;;21.10;11.05;;;16.80;99.90;;;;;;2081398;28;20021;-64
2021/06/15 04:45:40;;;;;;;24.52;12.15;;;16.80;99.90;;;;;;2081576;28;20508;-64
2021/06/15 04:46:48;;;;;;;31.27;12.10;;;16.80;99.90;;;;;;2080923;28;20474;-64
2021/06/15 04:48:01;;;;;;;34.10;12.73;;;16.80;99.90;;;;;;2081415;28;20139;-64
2021/06/15 04:49:22;;;;;;;24.67;12.27;;;16.80;99.90;;;;;;2086630;28;20032;-64
2021/06/15 04:50:27;;;;;;;22.05;12.52;;;16.80;99.90;;;;;;2075751;28;20025;-64
2021/06/15 04:51:31;;;;;;;28.20;11.98;;;16.80;99.90;;;;;;2076982;28;20032;-64
2021/06/15 04:52:32;;;;;;;26.70;11.73;;;16.80;99.90;;;;;;2080547;28;20029;-64
2021/06/15 04:53:37;;;;;;;26.48;12.65;;;16.80;99.90;;;;;;2086493;28;20021;-64
2021/06/15 04:54:41;;;;;;;26.95;11.57;;;16.80;99.90;;;;;;2080128;28;20022;-64
2021/06/15 04:55:43;;;;;;;26.42;11.95;;;16.80;99.90;;;;;;2080969;28;20033;-64
2021/06/15 04:56:44;;;;;;;22.83;12.27;;;16.80;99.90;;;;;;2080419;28;20040;-63
2021/06/15 04:57:46;;;;;;;28.33;11.70;;;16.80;99.90;;;;;;2073197;28;20041;-64
2021/06/15 04:58:48;;;;;;;24.35;11.90;;;16.80;99.90;;;;;;2079567;28;20370;-64
2021/06/15 04:59:52;;;;;;;39.45;12.63;;;16.80;99.90;;;;;;2081054;28;20022;-64
2021/06/15 05:00:54;;;;;;;31.25;11.68;;;16.80;99.90;;;;;;2081218;28;20026;-64
2021/06/15 05:01:55;;;;;;;;;;;16.80;99.90;;;;;;2088547;28;20049;-64
2021/06/15 05:02:58;;;;;;;25.33;11.82;;;16.90;99.90;;;;;;2081720;28;19913;-65
2021/06/15 05:03:59;;;;;;;25.45;11.52;;;16.90;99.90;;;;;;2072448;28;20030;-64
2021/06/15 05:05:00;;;;;;;20.98;12.15;;;16.90;99.90;;;;;;2082612;28;20049;-64
2021/06/15 05:06:05;;;;;;;22.13;10.60;;;16.90;99.90;;;;;;2081311;28;20052;-65
2021/06/15 05:07:07;;;;;;;24.10;11.48;;;16.90;99.90;;;;;;2079314;28;20437;-64
2021/06/15 05:08:14;;;;;;;24.08;11.10;;;16.90;99.90;;;;;;2083101;28;20028;-64
2021/06/15 05:09:16;;;;;;;37.42;11.20;;;16.90;99.90;;;;;;2078076;28;20013;-64
2021/06/15 05:10:20;;;;;;;23.50;11.00;;;16.90;99.90;;;;;;2080444;28;20033;-64
2021/06/15 05:11:22;;;;;;;28.40;11.25;;;17.00;99.90;;;;;;2080122;28;20413;-64
2021/06/15 05:12:23;;;;;;;;;;;17.00;99.90;;;;;;2080256;28;20116;-64
2021/06/15 05:13:24;;;;;;;17.30;10.07;;;17.00;99.90;;;;;;2078776;28;19913;-64
2021/06/15 05:14:28;;;;;;;17.98;10.15;;;17.00;99.90;;;;;;2072712;28;20029;-64
2021/06/15 05:15:31;;;;;;;21.70;11.23;;;17.00;99.90;;;;;;2076579;28;20618;-64
2021/06/15 05:16:37;;;;;;;21.65;11.02;;;17.00;99.90;;;;;;2081202;28;20029;-64
2021/06/15 05:17:47;;;;;;;25.83;11.27;;;17.00;99.90;;;;;;2081064;28;20083;-64
2021/06/15 05:18:47;;;;;;;21.63;10.38;;;17.00;99.90;;;;;;2080735;28;20021;-64
2021/06/15 05:19:49;;;;;;;25.02;11.32;;;17.00;99.90;;;;;;2078118;28;20040;-64
2021/06/15 05:20:50;;;;;;;25.33;10.90;;;17.00;99.90;;;;;;2080553;28;20075;-64
2021/06/15 05:21:54;;;;;;;20.42;10.35;;;17.00;99.90;;;;;;2083036;28;20061;-63
2021/06/15 05:23:15;;;;;;;22.10;10.57;;;17.00;99.90;;;;;;2084274;28;20033;-65
2021/06/15 05:24:34;;;;;;;18.52;10.45;;;17.00;99.90;;;;;;2077418;28;20056;-64
2021/06/15 05:25:35;;;;;;;21.23;10.15;;;17.10;99.90;;;;;;2073597;28;20516;-65
2021/06/15 05:26:35;;;;;;;18.88;10.35;;;17.10;99.90;;;;;;2080182;28;20030;-63
2021/06/15 05:27:36;;;;;;;30.30;11.90;;;17.10;99.90;;;;;;2080102;28;20020;-65
2021/06/15 05:28:37;;;;;;;20.77;11.43;;;17.10;99.90;;;;;;2078521;28;20053;-65
2021/06/15 05:29:38;;;;;;;24.33;11.40;;;17.10;99.90;;;;;;2076227;28;20496;-63
2021/06/15 05:30:39;;;;;;;18.77;10.40;;;17.10;99.90;;;;;;2078473;28;20029;-64